sensor_id;sensor_type;location;lat;lon;timestamp;pressure;altitude;pressure_sealevel;temperature;humidity
4022;BME280;2025;48.260;16.432;2022-10-16T00:00:38;99879.03;;;11.69;100.00
4022;BME280;2025;48.260;16.432;2022-10-16T00:03:07;99879.91;;;11.70;100.00
4022;BME280;2025;48.260;16.432;2022-10-16T00:05:39;99878.16;;;11.69;100.00
4022;BME280;2025;48.260;16.432;2022-10-16T00:08:06;99873.69;;;11.57;100.00
4022;BME280;2025;48.260;16.432;2022-10-16T00:10:34;99873.63;;;11.48;100.00
4022;BME280;2025;48.260;16.432;2022-10-16T00:13:02;99870.94;;;11.39;100.00
4022;BME280;2025;48.260;16.432;2022-10-16T00:15:30;99871.75;;;11.30;100.00
4022;BME280;2025;48.260;16.432;2022-10-16T00:17:57;99877.84;;;11.24;100.00
4022;BME280;2025;48.260;16.432;2022-10-16T00:20:24;99890.13;;;11.30;100.00
4022;BME280;2025;48.260;16.432;2022-10-16T00:22:51;99887.44;;;11.22;100.00
4022;BME280;2025;48.260;16.432;2022-10-16T00:25:18;99882.16;;;11.16;100.00
4022;BME280;2025;48.260;16.432;2022-10-16T00:27:45;99891.72;;;11.13;100.00
4022;BME280;2025;48.260;16.432;2022-10-16T00:30:13;99893.47;;;11.11;100.00
4022;BME280;2025;48.260;16.432;2022-10-16T00:32:40;99890.00;;;11.13;100.00
4022;BME280;2025;48.260;16.432;2022-10-16T00:35:08;99887.41;;;11.18;100.00
4022;BME280;2025;48.260;16.432;2022-10-16T00:37:35;99888.44;;;11.37;100.00
4022;BME280;2025;48.260;16.432;2022-10-16T00:40:02;99891.00;;;11.31;100.00
4022;BME280;2025;48.260;16.432;2022-10-16T00:42:29;99886.56;;;11.22;100.00
4022;BME280;2025;48.260;16.432;2022-10-16T00:44:57;99888.28;;;11.17;100.00
4022;BME280;2025;48.260;16.432;2022-10-16T00:47:28;99895.22;;;11.12;100.00
4022;BME280;2025;48.260;16.432;2022-10-16T00:50:00;99897.84;;;11.12;100.00
4022;BME280;2025;48.260;16.432;2022-10-16T00:52:28;99887.38;;;11.13;100.00
4022;BME280;2025;48.260;16.432;2022-10-16T00:54:56;99901.38;;;11.17;100.00
4022;BME280;2025;48.260;16.432;2022-10-16T00:57:25;99913.69;;;11.25;100.00
4022;BME280;2025;48.260;16.432;2022-10-16T00:59:53;99914.47;;;11.14;100.00
4022;BME280;2025;48.260;16.432;2022-10-16T01:02:20;99916.13;;;11.03;100.00
4022;BME280;2025;48.260;16.432;2022-10-16T01:04:51;99913.50;;;11.04;100.00
4022;BME280;2025;48.260;16.432;2022-10-16T01:07:30;99901.28;;;11.05;100.00
4022;BME280;2025;48.260;16.432;2022-10-16T01:10:07;99903.94;;;11.11;100.00
4022;BME280;2025;48.260;16.432;2022-10-16T01:12:41;99904.81;;;11.08;100.00
4022;BME280;2025;48.260;16.432;2022-10-16T01:15:13;99898.66;;;11.06;100.00
4022;BME280;2025;48.260;16.432;2022-10-16T01:17:46;99896.91;;;11.05;100.00
4022;BME280;2025;48.260;16.432;2022-10-16T01:20:22;99897.72;;;11.00;100.00
4022;BME280;2025;48.260;16.432;2022-10-16T01:23:10;99885.44;;;10.94;100.00
4022;BME280;2025;48.260;16.432;2022-10-16T01:26:04;99887.13;;;10.86;100.00
4022;BME280;2025;48.260;16.432;2022-10-16T01:28:42;99890.66;;;10.89;100.00
4022;BME280;2025;48.260;16.432;2022-10-16T01:31:15;99898.53;;;10.92;100.00
4022;BME280;2025;48.260;16.432;2022-10-16T01:33:47;99910.78;;;10.93;100.00
4022;BME280;2025;48.260;16.432;2022-10-16T01:36:21;99905.50;;;10.90;100.00
4022;BME280;2025;48.260;16.432;2022-10-16T01:38:51;99899.41;;;10.90;100.00
4022;BME280;2025;48.260;16.432;2022-10-16T01:41:23;99901.16;;;10.91;100.00
4022;BME280;2025;48.260;16.432;2022-10-16T01:43:57;99888.88;;;10.85;100.00
4022;BME280;2025;48.260;16.432;2022-10-16T01:46:27;99886.22;;;10.84;100.00
4022;BME280;2025;48.260;16.432;2022-10-16T01:48:55;99889.66;;;10.78;100.00
4022;BME280;2025;48.260;16.432;2022-10-16T01:51:23;99890.53;;;10.77;100.00
4022;BME280;2025;48.260;16.432;2022-10-16T01:53:53;99896.59;;;10.73;100.00
4022;BME280;2025;48.260;16.432;2022-10-16T01:56:22;99900.03;;;10.66;100.00
4022;BME280;2025;48.260;16.432;2022-10-16T01:58:55;99891.22;;;10.59;100.00
4022;BME280;2025;48.260;16.432;2022-10-16T02:01:26;99892.97;;;10.59;100.00
4022;BME280;2025;48.260;16.432;2022-10-16T02:03:57;99895.63;;;10.64;100.00
4022;BME280;2025;48.260;16.432;2022-10-16T02:06:26;99900.00;;;10.63;100.00
4022;BME280;2025;48.260;16.432;2022-10-16T02:08:53;99911.25;;;10.53;100.00
4022;BME280;2025;48.260;16.432;2022-10-16T02:11:20;99906.78;;;10.46;100.00
4022;BME280;2025;48.260;16.432;2022-10-16T02:13:51;99897.28;;;10.54;100.00
4022;BME280;2025;48.260;16.432;2022-10-16T02:16:23;99900.81;;;10.59;100.00
4022;BME280;2025;48.260;16.432;2022-10-16T02:18:58;99907.03;;;10.67;100.00
4022;BME280;2025;48.260;16.432;2022-10-16T02:21:28;99907.06;;;10.70;100.00
4022;BME280;2025;48.260;16.432;2022-10-16T02:24:01;99900.03;;;10.68;100.00
4022;BME280;2025;48.260;16.432;2022-10-16T02:26:34;99914.03;;;10.70;100.00
4022;BME280;2025;48.260;16.432;2022-10-16T02:29:07;99921.94;;;10.74;100.00
4022;BME280;2025;48.260;16.432;2022-10-16T02:31:36;99916.78;;;10.80;100.00
4022;BME280;2025;48.260;16.432;2022-10-16T02:34:05;99926.41;;;10.81;100.00
4022;BME280;2025;48.260;16.432;2022-10-16T02:36:35;99915.06;;;10.85;100.00
4022;BME280;2025;48.260;16.432;2022-10-16T02:39:03;99918.63;;;10.90;100.00
4022;BME280;2025;48.260;16.432;2022-10-16T02:41:31;99916.06;;;10.97;100.00
4022;BME280;2025;48.260;16.432;2022-10-16T02:43:58;99916.91;;;10.94;100.00
4022;BME280;2025;48.260;16.432;2022-10-16T02:46:25;99925.69;;;10.99;100.00
4022;BME280;2025;48.260;16.432;2022-10-16T02:48:53;99921.28;;;10.95;100.00
4022;BME280;2025;48.260;16.432;2022-10-16T02:51:20;99923.94;;;10.97;100.00
4022;BME280;2025;48.260;16.432;2022-10-16T02:53:47;99933.59;;;11.04;100.00
4022;BME280;2025;48.260;16.432;2022-10-16T02:56:14;99944.88;;;10.93;100.00
4022;BME280;2025;48.260;16.432;2022-10-16T02:58:41;99935.09;;;10.79;100.00
4022;BME280;2025;48.260;16.432;2022-10-16T03:01:08;99938.56;;;10.76;100.00
4022;BME280;2025;48.260;16.432;2022-10-16T03:03:37;99931.66;;;10.84;100.00
4022;BME280;2025;48.260;16.432;2022-10-16T03:06:06;99923.81;;;10.86;100.00
4022;BME280;2025;48.260;16.432;2022-10-16T03:08:33;99935.09;;;10.77;100.00
4022;BME280;2025;48.260;16.432;2022-10-16T03:11:00;99931.53;;;10.72;100.00
4022;BME280;2025;48.260;16.432;2022-10-16T03:13:27;99930.75;;;10.79;100.00
4022;BME280;2025;48.260;16.432;2022-10-16T03:15:54;99929.81;;;10.74;100.00
4022;BME280;2025;48.260;16.432;2022-10-16T03:18:21;99927.16;;;10.70;100.00
4022;BME280;2025;48.260;16.432;2022-10-16T03:20:48;99924.50;;;10.67;100.00
4022;BME280;2025;48.260;16.432;2022-10-16T03:23:16;99928.81;;;10.63;100.00
4022;BME280;2025;48.260;16.432;2022-10-16T03:25:43;99940.16;;;10.62;100.00
4022;BME280;2025;48.260;16.432;2022-10-16T03:28:11;99936.69;;;10.63;100.00
4022;BME280;2025;48.260;16.432;2022-10-16T03:30:38;99934.94;;;10.62;100.00
4022;BME280;2025;48.260;16.432;2022-10-16T03:33:05;99944.53;;;10.62;100.00
4022;BME280;2025;48.260;16.432;2022-10-16T03:35:32;99938.38;;;10.58;100.00
4022;BME280;2025;48.260;16.432;2022-10-16T03:37:59;99941.81;;;10.54;100.00
4022;BME280;2025;48.260;16.432;2022-10-16T03:40:28;99951.38;;;10.49;100.00
4022;BME280;2025;48.260;16.432;2022-10-16T03:42:57;99948.84;;;10.58;100.00
4022;BME280;2025;48.260;16.432;2022-10-16T03:45:24;99951.69;;;10.76;100.00
4022;BME280;2025;48.260;16.432;2022-10-16T03:47:51;99966.75;;;10.96;100.00
4022;BME280;2025;48.260;16.432;2022-10-16T03:50:18;99979.88;;;10.97;100.00
4022;BME280;2025;48.260;16.432;2022-10-16T03:52:45;99973.47;;;10.71;100.00
4022;BME280;2025;48.260;16.432;2022-10-16T03:55:13;99971.56;;;10.59;100.00
4022;BME280;2025;48.260;16.432;2022-10-16T03:57:41;99968.13;;;10.63;100.00
4022;BME280;2025;48.260;16.432;2022-10-16T04:00:10;99976.91;;;10.67;100.00
4022;BME280;2025;48.260;16.432;2022-10-16T04:02:37;99973.25;;;10.52;100.00
4022;BME280;2025;48.260;16.432;2022-10-16T04:05:04;99980.16;;;10.46;100.00
4022;BME280;2025;48.260;16.432;2022-10-16T04:07:31;99980.00;;;10.37;100.00
4022;BME280;2025;48.260;16.432;2022-10-16T04:09:58;99976.66;;;10.47;100.00
4022;BME280;2025;48.260;16.432;2022-10-16T04:12:25;99969.78;;;10.55;100.00
4022;BME280;2025;48.260;16.432;2022-10-16T04:14:54;99968.56;;;11.04;100.00
4022;BME280;2025;48.260;16.432;2022-10-16T04:17:21;99970.47;;;11.19;100.00
4022;BME280;2025;48.260;16.432;2022-10-16T04:19:48;99975.69;;;11.16;100.00
4022;BME280;2025;48.260;16.432;2022-10-16T04:22:15;99993.13;;;11.11;100.00
4022;BME280;2025;48.260;16.432;2022-10-16T04:24:42;99999.13;;;11.01;100.00
4022;BME280;2025;48.260;16.432;2022-10-16T04:27:09;99987.63;;;10.88;100.00
4022;BME280;2025;48.260;16.432;2022-10-16T04:29:36;99984.13;;;10.87;100.00
4022;BME280;2025;48.260;16.432;2022-10-16T04:32:04;99985.00;;;10.86;100.00
4022;BME280;2025;48.260;16.432;2022-10-16T04:34:31;99979.78;;;10.88;100.00
4022;BME280;2025;48.260;16.432;2022-10-16T04:36:58;99988.50;;;10.87;100.00
4022;BME280;2025;48.260;16.432;2022-10-16T04:39:25;99997.22;;;10.87;100.00
4022;BME280;2025;48.260;16.432;2022-10-16T04:41:52;99991.94;;;10.83;100.00
4022;BME280;2025;48.260;16.432;2022-10-16T04:44:19;99992.63;;;10.67;100.00
4022;BME280;2025;48.260;16.432;2022-10-16T04:46:46;99995.22;;;10.64;100.00
4022;BME280;2025;48.260;16.432;2022-10-16T04:49:15;100007.41;;;10.62;100.00
4022;BME280;2025;48.260;16.432;2022-10-16T04:51:42;100001.34;;;10.64;100.00
4022;BME280;2025;48.260;16.432;2022-10-16T04:54:09;100002.22;;;10.65;100.00
4022;BME280;2025;48.260;16.432;2022-10-16T04:56:36;100005.69;;;10.62;100.00
4022;BME280;2025;48.260;16.432;2022-10-16T04:59:08;100010.84;;;10.57;100.00
4022;BME280;2025;48.260;16.432;2022-10-16T05:01:35;100010.75;;;10.50;100.00
4022;BME280;2025;48.260;16.432;2022-10-16T05:04:02;100007.16;;;10.42;100.00
4022;BME280;2025;48.260;16.432;2022-10-16T05:06:31;100015.16;;;10.51;100.00
4022;BME280;2025;48.260;16.432;2022-10-16T05:08:58;100012.53;;;10.51;100.00
4022;BME280;2025;48.260;16.432;2022-10-16T05:11:25;100014.19;;;10.46;100.00
4022;BME280;2025;48.260;16.432;2022-10-16T05:13:52;100017.66;;;10.42;100.00
4022;BME280;2025;48.260;16.432;2022-10-16T05:16:19;100012.28;;;10.36;100.00
4022;BME280;2025;48.260;16.432;2022-10-16T05:18:46;100017.53;;;10.37;100.00
4022;BME280;2025;48.260;16.432;2022-10-16T05:21:13;100030.75;;;10.42;100.00
4022;BME280;2025;48.260;16.432;2022-10-16T05:23:41;100023.00;;;10.51;100.00
4022;BME280;2025;48.260;16.432;2022-10-16T05:26:08;100025.78;;;10.63;100.00
4022;BME280;2025;48.260;16.432;2022-10-16T05:28:35;100038.13;;;10.72;100.00
4022;BME280;2025;48.260;16.432;2022-10-16T05:31:04;100035.56;;;10.78;100.00
4022;BME280;2025;48.260;16.432;2022-10-16T05:33:31;100047.03;;;10.87;100.00
4022;BME280;2025;48.260;16.432;2022-10-16T05:36:01;100048.03;;;10.97;100.00
4022;BME280;2025;48.260;16.432;2022-10-16T05:38:28;100044.72;;;11.13;100.00
4022;BME280;2025;48.260;16.432;2022-10-16T05:40:57;100045.75;;;11.29;100.00
4022;BME280;2025;48.260;16.432;2022-10-16T05:43:23;100048.50;;;11.40;100.00
4022;BME280;2025;48.260;16.432;2022-10-16T05:45:54;100052.94;;;11.48;100.00
4022;BME280;2025;48.260;16.432;2022-10-16T05:48:22;100056.59;;;11.64;100.00
4022;BME280;2025;48.260;16.432;2022-10-16T05:50:56;100063.53;;;11.59;100.00
4022;BME280;2025;48.260;16.432;2022-10-16T05:53:23;100073.22;;;11.66;100.00
4022;BME280;2025;48.260;16.432;2022-10-16T05:55:54;100062.78;;;11.71;100.00
4022;BME280;2025;48.260;16.432;2022-10-16T05:58:23;100060.19;;;11.75;100.00
4022;BME280;2025;48.260;16.432;2022-10-16T06:00:54;100065.44;;;11.77;100.00
4022;BME280;2025;48.260;16.432;2022-10-16T06:03:21;100069.97;;;11.88;100.00
4022;BME280;2025;48.260;16.432;2022-10-16T06:05:49;100080.47;;;11.90;100.00
4022;BME280;2025;48.260;16.432;2022-10-16T06:08:16;100086.66;;;11.97;100.00
4022;BME280;2025;48.260;16.432;2022-10-16T06:10:43;100093.66;;;11.96;100.00
4022;BME280;2025;48.260;16.432;2022-10-16T06:13:10;100085.75;;;11.93;100.00
4022;BME280;2025;48.260;16.432;2022-10-16T06:15:39;100096.28;;;11.95;100.00
4022;BME280;2025;48.260;16.432;2022-10-16T06:18:07;100085.75;;;11.92;100.00
4022;BME280;2025;48.260;16.432;2022-10-16T06:20:35;100086.69;;;12.00;100.00
4022;BME280;2025;48.260;16.432;2022-10-16T06:23:02;100095.47;;;12.03;100.00
4022;BME280;2025;48.260;16.432;2022-10-16T06:25:30;100099.88;;;12.09;100.00
4022;BME280;2025;48.260;16.432;2022-10-16T06:27:57;100106.09;;;12.15;100.00
4022;BME280;2025;48.260;16.432;2022-10-16T06:30:24;100114.06;;;12.28;100.00
4022;BME280;2025;48.260;16.432;2022-10-16T06:32:53;100125.50;;;12.33;100.00
4022;BME280;2025;48.260;16.432;2022-10-16T06:35:20;100119.41;;;12.38;100.00
4022;BME280;2025;48.260;16.432;2022-10-16T06:37:47;100119.44;;;12.41;100.00
4022;BME280;2025;48.260;16.432;2022-10-16T06:40:14;100118.56;;;12.44;100.00
4022;BME280;2025;48.260;16.432;2022-10-16T06:42:41;100131.75;;;12.50;100.00
4022;BME280;2025;48.260;16.432;2022-10-16T06:45:09;100128.28;;;12.54;100.00
4022;BME280;2025;48.260;16.432;2022-10-16T06:47:36;100126.59;;;12.64;100.00
4022;BME280;2025;48.260;16.432;2022-10-16T06:50:05;100121.28;;;12.58;100.00
4022;BME280;2025;48.260;16.432;2022-10-16T06:52:33;100117.81;;;12.62;100.00
4022;BME280;2025;48.260;16.432;2022-10-16T06:55:00;100122.28;;;12.76;100.00
4022;BME280;2025;48.260;16.432;2022-10-16T06:57:28;100132.81;;;12.79;100.00
4022;BME280;2025;48.260;16.432;2022-10-16T06:59:55;100144.19;;;12.77;100.00
4022;BME280;2025;48.260;16.432;2022-10-16T07:02:22;100147.72;;;12.79;100.00
4022;BME280;2025;48.260;16.432;2022-10-16T07:04:49;100147.69;;;12.77;100.00
4022;BME280;2025;48.260;16.432;2022-10-16T07:07:18;100153.78;;;12.69;100.00
4022;BME280;2025;48.260;16.432;2022-10-16T07:09:45;100144.91;;;12.53;100.00
4022;BME280;2025;48.260;16.432;2022-10-16T07:12:12;100142.31;;;12.56;100.00
4022;BME280;2025;48.260;16.432;2022-10-16T07:14:39;100157.19;;;12.54;100.00
4022;BME280;2025;48.260;16.432;2022-10-16T07:17:06;100151.06;;;12.55;100.00
4022;BME280;2025;48.260;16.432;2022-10-16T07:19:33;100151.94;;;12.57;100.00
4022;BME280;2025;48.260;16.432;2022-10-16T07:22:00;100154.63;;;12.66;100.00
4022;BME280;2025;48.260;16.432;2022-10-16T07:24:28;100156.41;;;12.69;100.00
4022;BME280;2025;48.260;16.432;2022-10-16T07:26:55;100171.25;;;12.62;100.00
4022;BME280;2025;48.260;16.432;2022-10-16T07:29:22;100158.25;;;12.82;100.00
4022;BME280;2025;48.260;16.432;2022-10-16T07:31:49;100162.66;;;12.86;100.00
4022;BME280;2025;48.260;16.432;2022-10-16T07:34:18;100162.66;;;12.88;100.00
4022;BME280;2025;48.260;16.432;2022-10-16T07:36:48;100153.91;;;12.93;100.00
4022;BME280;2025;48.260;16.432;2022-10-16T07:39:15;100149.56;;;12.97;100.00
4022;BME280;2025;48.260;16.432;2022-10-16T07:41:43;100149.59;;;13.03;100.00
4022;BME280;2025;48.260;16.432;2022-10-16T07:44:10;100135.53;;;12.98;100.00
4022;BME280;2025;48.260;16.432;2022-10-16T07:46:37;100146.06;;;13.01;100.00
4022;BME280;2025;48.260;16.432;2022-10-16T07:49:09;100152.16;;;12.94;100.00
4022;BME280;2025;48.260;16.432;2022-10-16T07:51:36;100158.28;;;12.91;100.00
4022;BME280;2025;48.260;16.432;2022-10-16T07:54:04;100158.34;;;12.99;100.00
4022;BME280;2025;48.260;16.432;2022-10-16T07:56:31;100166.28;;;13.11;100.00
4022;BME280;2025;48.260;16.432;2022-10-16T07:59:00;100160.09;;;13.01;100.00
4022;BME280;2025;48.260;16.432;2022-10-16T08:01:27;100158.38;;;13.05;100.00
4022;BME280;2025;48.260;16.432;2022-10-16T08:03:54;100167.22;;;13.19;100.00
4022;BME280;2025;48.260;16.432;2022-10-16T08:06:21;100171.63;;;13.23;100.00
4022;BME280;2025;48.260;16.432;2022-10-16T08:08:49;100178.66;;;13.24;100.00
4022;BME280;2025;48.260;16.432;2022-10-16T08:11:16;100182.13;;;13.17;100.00
4022;BME280;2025;48.260;16.432;2022-10-16T08:13:43;100189.19;;;13.24;100.00
4022;BME280;2025;48.260;16.432;2022-10-16T08:16:11;100190.09;;;13.32;100.00
4022;BME280;2025;48.260;16.432;2022-10-16T08:18:40;100190.13;;;13.38;100.00
4022;BME280;2025;48.260;16.432;2022-10-16T08:21:14;100189.25;;;13.39;100.00
4022;BME280;2025;48.260;16.432;2022-10-16T08:23:41;100191.00;;;13.40;100.00
4022;BME280;2025;48.260;16.432;2022-10-16T08:26:09;100199.84;;;13.56;100.00
4022;BME280;2025;48.260;16.432;2022-10-16T08:28:37;100196.34;;;13.56;100.00
4022;BME280;2025;48.260;16.432;2022-10-16T08:31:06;100199.84;;;13.59;100.00
4022;BME280;2025;48.260;16.432;2022-10-16T08:33:35;100204.22;;;13.54;100.00
4022;BME280;2025;48.260;16.432;2022-10-16T08:36:03;100207.69;;;13.44;100.00
4022;BME280;2025;48.260;16.432;2022-10-16T08:38:30;100213.91;;;13.58;100.00
4022;BME280;2025;48.260;16.432;2022-10-16T08:41:02;100211.25;;;13.57;100.00
4022;BME280;2025;48.260;16.432;2022-10-16T08:46:42;100218.31;;;13.67;100.00
4022;BME280;2025;48.260;16.432;2022-10-16T08:49:15;100219.22;;;13.82;100.00
4022;BME280;2025;48.260;16.432;2022-10-16T08:51:43;100215.72;;;13.79;100.00
4022;BME280;2025;48.260;16.432;2022-10-16T08:54:21;100217.56;;;14.01;100.00
4022;BME280;2025;48.260;16.432;2022-10-16T08:56:50;100222.84;;;14.04;100.00
4022;BME280;2025;48.260;16.432;2022-10-16T08:59:17;100225.50;;;14.17;100.00
4022;BME280;2025;48.260;16.432;2022-10-16T09:01:46;100235.16;;;14.11;100.00
4022;BME280;2025;48.260;16.432;2022-10-16T09:04:38;100231.63;;;14.17;100.00
4022;BME280;2025;48.260;16.432;2022-10-16T09:07:12;100242.19;;;14.14;100.00
4022;BME280;2025;48.260;16.432;2022-10-16T09:09:56;100245.69;;;14.16;100.00
4022;BME280;2025;48.260;16.432;2022-10-16T09:12:30;100250.03;;;13.94;100.00
4022;BME280;2025;48.260;16.432;2022-10-16T09:15:05;100254.44;;;13.97;100.00
4022;BME280;2025;48.260;16.432;2022-10-16T09:17:43;100245.63;;;13.92;100.00
4022;BME280;2025;48.260;16.432;2022-10-16T09:20:30;100255.31;;;13.94;100.00
4022;BME280;2025;48.260;16.432;2022-10-16T09:23:17;100259.72;;;14.04;100.00
4022;BME280;2025;48.260;16.432;2022-10-16T09:25:46;100260.59;;;14.06;100.00
4022;BME280;2025;48.260;16.432;2022-10-16T09:28:17;100260.63;;;14.14;100.00
4022;BME280;2025;48.260;16.432;2022-10-16T09:30:45;100273.00;;;14.59;100.00
4022;BME280;2025;48.260;16.432;2022-10-16T09:33:14;100310.81;;;14.75;100.00
4022;BME280;2025;48.260;16.432;2022-10-16T09:35:44;100324.00;;;14.75;100.00
4022;BME280;2025;48.260;16.432;2022-10-16T09:38:22;100324.00;;;14.81;100.00
4022;BME280;2025;48.260;16.432;2022-10-16T09:40:50;100336.34;;;14.90;100.00
4022;BME280;2025;48.260;16.432;2022-10-16T09:43:21;100337.22;;;14.89;100.00
4022;BME280;2025;48.260;16.432;2022-10-16T09:45:57;100332.81;;;15.12;100.00
4022;BME280;2025;48.260;16.432;2022-10-16T09:48:27;100348.63;;;15.32;100.00
4022;BME280;2025;48.260;16.432;2022-10-16T09:50:58;100377.66;;;15.49;100.00
4022;BME280;2025;48.260;16.432;2022-10-16T09:53:37;100379.38;;;15.86;100.00
4022;BME280;2025;48.260;16.432;2022-10-16T09:56:05;100381.13;;;15.95;100.00
4022;BME280;2025;48.260;16.432;2022-10-16T09:58:33;100388.03;;;16.28;100.00
4022;BME280;2025;48.260;16.432;2022-10-16T10:01:00;100389.66;;;16.53;100.00
4022;BME280;2025;48.260;16.432;2022-10-16T10:03:36;100410.81;;;16.65;100.00
4022;BME280;2025;48.260;16.432;2022-10-16T10:06:18;100416.75;;;17.01;100.00
4022;BME280;2025;48.260;16.432;2022-10-16T10:08:55;100424.50;;;17.27;100.00
4022;BME280;2025;48.260;16.432;2022-10-16T10:11:47;100443.19;;;17.07;100.00
4022;BME280;2025;48.260;16.432;2022-10-16T10:14:23;100428.75;;;17.49;100.00
4022;BME280;2025;48.260;16.432;2022-10-16T10:16:52;100429.41;;;17.77;100.00
4022;BME280;2025;48.260;16.432;2022-10-16T10:19:21;100429.22;;;17.92;100.00
4022;BME280;2025;48.260;16.432;2022-10-16T10:21:50;100437.91;;;18.08;100.00
4022;BME280;2025;48.260;16.432;2022-10-16T10:24:19;100430.41;;;18.42;100.00
4022;BME280;2025;48.260;16.432;2022-10-16T10:26:57;100447.41;;;18.95;100.00
4022;BME280;2025;48.260;16.432;2022-10-16T10:29:37;100434.69;;;19.18;100.00
4022;BME280;2025;48.260;16.432;2022-10-16T10:32:17;100437.28;;;19.23;100.00
4022;BME280;2025;48.260;16.432;2022-10-16T10:34:56;100437.31;;;19.21;100.00
4022;BME280;2025;48.260;16.432;2022-10-16T10:37:42;100443.84;;;19.56;100.00
4022;BME280;2025;48.260;16.432;2022-10-16T10:40:27;100439.66;;;19.40;100.00
4022;BME280;2025;48.260;16.432;2022-10-16T10:43:00;100435.31;;;19.86;100.00
4022;BME280;2025;48.260;16.432;2022-10-16T10:45:38;100429.63;;;20.51;100.00
4022;BME280;2025;48.260;16.432;2022-10-16T10:51:22;100413.88;;;20.82;100.00
4022;BME280;2025;48.260;16.432;2022-10-16T10:53:57;100417.44;;;20.81;100.00
4022;BME280;2025;48.260;16.432;2022-10-16T10:56:43;100417.41;;;21.57;100.00
4022;BME280;2025;48.260;16.432;2022-10-16T11:02:09;100431.84;;;21.11;100.00
4022;BME280;2025;48.260;16.432;2022-10-16T11:04:58;100429.38;;;20.62;100.00
4022;BME280;2025;48.260;16.432;2022-10-16T11:07:32;100414.72;;;21.21;100.00
4022;BME280;2025;48.260;16.432;2022-10-16T11:10:09;100414.00;;;21.84;100.00
4022;BME280;2025;48.260;16.432;2022-10-16T11:12:42;100406.84;;;21.86;100.00
4022;BME280;2025;48.260;16.432;2022-10-16T11:15:14;100396.56;;;22.05;100.00
4022;BME280;2025;48.260;16.432;2022-10-16T11:17:43;100404.69;;;21.99;100.00
4022;BME280;2025;48.260;16.432;2022-10-16T11:20:16;100410.88;;;22.01;100.00
4022;BME280;2025;48.260;16.432;2022-10-16T11:22:48;100403.63;;;22.37;100.00
4022;BME280;2025;48.260;16.432;2022-10-16T11:25:21;100401.31;;;22.56;100.00
4022;BME280;2025;48.260;16.432;2022-10-16T11:27:54;100385.22;;;23.67;100.00
4022;BME280;2025;48.260;16.432;2022-10-16T11:30:25;100404.34;;;24.07;100.00
4022;BME280;2025;48.260;16.432;2022-10-16T11:33:03;100389.94;;;23.07;100.00
4022;BME280;2025;48.260;16.432;2022-10-16T11:35:42;100387.09;;;22.24;100.00
4022;BME280;2025;48.260;16.432;2022-10-16T11:38:15;100393.47;;;22.50;100.00
4022;BME280;2025;48.260;16.432;2022-10-16T11:40:47;100396.63;;;22.33;100.00
4022;BME280;2025;48.260;16.432;2022-10-16T11:43:21;100392.38;;;21.62;100.00
4022;BME280;2025;48.260;16.432;2022-10-16T11:45:51;100396.78;;;21.96;100.00
4022;BME280;2025;48.260;16.432;2022-10-16T11:48:25;100393.56;;;21.83;100.00
4022;BME280;2025;48.260;16.432;2022-10-16T11:50:56;100393.16;;;21.32;100.00
4022;BME280;2025;48.260;16.432;2022-10-16T11:53:38;100391.50;;;21.28;100.00
4022;BME280;2025;48.260;16.432;2022-10-16T11:56:12;100397.66;;;21.30;100.00
4022;BME280;2025;48.260;16.432;2022-10-16T11:58:41;100385.66;;;21.10;100.00
4022;BME280;2025;48.260;16.432;2022-10-16T12:01:17;100387.41;;;21.11;100.00
4022;BME280;2025;48.260;16.432;2022-10-16T12:03:54;100385.66;;;21.80;100.00
4022;BME280;2025;48.260;16.432;2022-10-16T12:06:30;100384.53;;;21.89;100.00
4022;BME280;2025;48.260;16.432;2022-10-16T12:08:59;100391.28;;;22.33;100.00
4022;BME280;2025;48.260;16.432;2022-10-16T12:11:36;100390.78;;;22.81;100.00
4022;BME280;2025;48.260;16.432;2022-10-16T12:14:18;100388.47;;;23.24;100.00
4022;BME280;2025;48.260;16.432;2022-10-16T12:16:54;100382.00;;;23.58;100.00
4022;BME280;2025;48.260;16.432;2022-10-16T12:19:24;100385.59;;;23.82;100.00
4022;BME280;2025;48.260;16.432;2022-10-16T12:21:55;100385.44;;;23.09;100.00
4022;BME280;2025;48.260;16.432;2022-10-16T12:24:32;100367.31;;;23.43;100.00
4022;BME280;2025;48.260;16.432;2022-10-16T12:27:02;100374.97;;;23.55;100.00
4022;BME280;2025;48.260;16.432;2022-10-16T12:29:34;100365.63;;;22.58;100.00
4022;BME280;2025;48.260;16.432;2022-10-16T12:32:03;100366.97;;;22.13;100.00
4022;BME280;2025;48.260;16.432;2022-10-16T12:34:37;100380.41;;;21.77;100.00
4022;BME280;2025;48.260;16.432;2022-10-16T12:37:14;100376.63;;;21.86;100.00
4022;BME280;2025;48.260;16.432;2022-10-16T12:39:46;100373.94;;;21.86;100.00
4022;BME280;2025;48.260;16.432;2022-10-16T12:42:30;100376.88;;;22.09;100.00
4022;BME280;2025;48.260;16.432;2022-10-16T12:44:57;100380.47;;;22.08;100.00
4022;BME280;2025;48.260;16.432;2022-10-16T12:47:37;100371.66;;;22.04;100.00
4022;BME280;2025;48.260;16.432;2022-10-16T12:50:24;100386.22;;;22.55;100.00
4022;BME280;2025;48.260;16.432;2022-10-16T12:52:52;100392.97;;;22.66;100.00
4022;BME280;2025;48.260;16.432;2022-10-16T12:55:20;100386.84;;;22.92;100.00
4022;BME280;2025;48.260;16.432;2022-10-16T12:58:09;100387.91;;;23.41;100.00
4022;BME280;2025;48.260;16.432;2022-10-16T13:00:44;100386.63;;;23.26;100.00
4022;BME280;2025;48.260;16.432;2022-10-16T13:03:39;100384.00;;;22.08;100.00
4022;BME280;2025;48.260;16.432;2022-10-16T13:06:20;100387.91;;;23.15;100.00
4022;BME280;2025;48.260;16.432;2022-10-16T13:12:00;100380.50;;;23.23;100.00
4022;BME280;2025;48.260;16.432;2022-10-16T13:15:00;100372.00;;;22.84;100.00
4022;BME280;2025;48.260;16.432;2022-10-16T13:17:33;100380.91;;;21.91;100.00
4022;BME280;2025;48.260;16.432;2022-10-16T13:20:12;100380.72;;;21.97;100.00
4022;BME280;2025;48.260;16.432;2022-10-16T13:22:51;100380.16;;;21.86;100.00